Time;durP1;ratioP1;P1;durP2;ratioP2;P2;SDS_P1;SDS_P2;PMS_P1;PMS_P2;Temp;Humidity;BMP_temperature;BMP_pressure;BME280_temperature;BME280_humidity;BME280_pressure;Samples;Min_cycle;Max_cycle;Signal;HPM_P1;HPM_P2
2022/06/08 00:05:34;;;;;;;2.75;0.60;;;;;;;17.04;63.01;97435.03;10473976;28;20056;-87
2022/06/08 00:10:55;;;;;;;4.07;0.60;;;;;;;17.00;62.95;97432.06;10467921;28;20040;-87
2022/06/08 00:16:15;;;;;;;0.90;0.40;;;;;;;16.96;63.16;97435.44;10472356;28;20047;-86
2022/06/08 00:21:36;;;;;;;1.80;0.50;;;;;;;16.94;63.02;97437.47;10474837;28;20093;-87
2022/06/08 00:26:56;;;;;;;1.08;0.70;;;;;;;16.91;63.05;97421.88;10474524;28;20040;-86
2022/06/08 00:32:18;;;;;;;3.80;0.40;;;;;;;16.89;62.75;97425.34;10474304;28;20044;-87
2022/06/08 00:37:39;;;;;;;3.70;0.60;;;;;;;16.86;63.07;97424.50;10460171;28;20478;-87
2022/06/08 00:42:59;;;;;;;2.88;0.40;;;;;;;16.82;63.10;97426.47;10473902;28;20041;-86
2022/06/08 00:48:20;;;;;;;3.88;0.60;;;;;;;16.79;63.11;97422.84;10473822;28;20052;-86
2022/06/08 00:53:45;;;;;;;3.33;0.57;;;;;;;16.80;63.01;97417.94;10391601;28;20053;-85
2022/06/08 00:59:06;;;;;;;2.97;0.47;;;;;;;16.77;62.79;97413.59;10418638;28;20507;-86
2022/06/08 01:04:29;;;;;;;1.33;0.50;;;;;;;16.76;62.85;97418.50;10404295;28;20056;-87
2022/06/08 01:09:50;;;;;;;2.83;0.60;;;;;;;16.72;62.75;97418.34;10390965;28;20056;-85
2022/06/08 01:15:11;;;;;;;2.25;0.40;;;;;;;16.72;62.84;97432.44;10376917;28;20510;-85
2022/06/08 01:20:33;;;;;;;2.53;0.60;;;;;;;16.71;62.79;97433.09;10404702;28;20045;-86
2022/06/08 01:26:42;;;;;;;1.65;0.35;;;;;;;16.73;62.74;97433.88;10403707;28;20511;-85
2022/06/08 01:32:09;;;;;;;3.75;0.50;;;;;;;16.71;62.68;97421.81;10414946;28;20056;-87
2022/06/08 01:37:43;;;;;;;1.55;0.45;;;;;;;16.68;62.65;97417.44;10403022;28;20483;-87
2022/06/08 01:43:08;;;;;;;2.53;0.50;;;;;;;16.69;62.70;97421.72;10390667;28;20045;-86
2022/06/08 01:48:41;;;;;;;5.17;0.50;;;;;;;16.69;62.55;97419.63;10403065;28;20053;-89
2022/06/08 01:54:23;;;;;;;3.93;0.47;;;;;;;16.68;62.59;97418.19;10416462;28;20041;-86
2022/06/08 02:00:07;;;;;;;3.60;0.40;;;;;;;16.72;62.51;97412.72;10416344;28;20484;-86
2022/06/08 02:06:06;;;;;;;3.65;0.52;;;;;;;16.67;62.55;97411.06;10404330;28;20045;-86
2022/06/08 02:11:40;;;;;;;1.65;0.50;;;;;;;16.65;62.32;97413.09;10402715;28;20045;-84
2022/06/08 02:17:32;;;;;;;2.28;0.50;;;;;;;16.60;62.68;97418.59;10388505;28;20052;-86
2022/06/08 02:23:08;;;;;;;1.45;0.40;;;;;;;16.53;62.73;97414.06;10415480;28;20124;-85
2022/06/08 02:28:34;;;;;;;2.97;0.55;;;;;;;16.45;62.87;97413.03;10401499;28;20042;-86
2022/06/08 02:39:51;;;;;;;1.92;0.50;;;;;;;16.38;62.98;97428.25;10398960;23;20058;-85
2022/06/08 02:45:21;;;;;;;2.88;0.40;;;;;;;16.37;62.93;97424.69;10333505;28;20451;-87
2022/06/08 02:50:54;;;;;;;1.80;0.50;;;;;;;16.39;63.22;97429.69;10347204;28;20061;-86
2022/06/08 02:56:26;;;;;;;2.97;0.52;;;;;;;16.40;62.95;97414.22;10319264;28;20053;-84
2022/06/08 03:02:05;;;;;;;2.95;0.50;;;;;;;16.39;63.07;97418.41;10343963;28;20049;-85
2022/06/08 03:07:31;;;;;;;3.03;0.70;;;;;;;16.38;63.02;97414.16;10304202;28;20092;-85
2022/06/08 03:12:59;;;;;;;4.40;1.30;;;;;;;16.41;63.15;97415.69;10319011;28;20101;-83
2022/06/08 03:18:20;;;;;;;5.15;2.95;;;;;;;16.43;63.09;97412.97;10310593;28;20042;-87
2022/06/08 03:23:41;;;;;;;5.68;3.25;;;;;;;16.45;63.31;97419.38;10299211;28;20042;-87
2022/06/08 03:29:02;;;;;;;6.47;1.73;;;;;;;16.53;63.06;97419.72;10305683;28;20038;-86
2022/06/08 03:34:24;;;;;;;2.78;0.85;;;;;;;16.63;62.97;97419.38;10292462;28;20046;-89
2022/06/08 03:39:46;;;;;;;2.97;0.65;;;;;;;16.74;62.79;97421.25;10302337;28;20046;-87
2022/06/08 03:45:08;;;;;;;1.80;0.40;;;;;;;16.86;62.55;97420.97;10303340;28;20382;-87
2022/06/08 03:50:32;;;;;;;;;;;;;;;17.03;62.27;97427.94;10322717;28;20042;-86
2022/06/08 03:55:54;;;;;;;1.77;0.55;;;;;;;17.13;62.20;97414.22;10325966;28;19922;-89
2022/06/08 04:01:14;;;;;;;1.52;0.50;;;;;;;17.27;61.85;97428.09;10325500;28;20042;-86
2022/06/08 04:06:38;;;;;;;3.25;0.60;;;;;;;17.39;61.50;97420.81;10312249;28;20504;-85
2022/06/08 04:11:59;;;;;;;1.63;0.40;;;;;;;17.46;61.62;97411.19;10327566;28;20046;-77
2022/06/08 04:17:20;;;;;;;1.60;0.60;;;;;;;17.57;61.23;97414.38;10298205;28;20039;-79
2022/06/08 04:22:41;;;;;;;5.25;0.50;;;;;;;17.76;61.29;97412.91;10284560;28;20047;-79
2022/06/08 04:28:03;;;;;;;3.13;0.40;;;;;;;18.02;61.11;97406.06;10298081;28;20051;-77
2022/06/08 04:33:23;;;;;;;0.85;0.40;;;;;;;18.35;60.74;97407.13;10298010;28;20422;-80
2022/06/08 04:38:44;;;;;;;2.28;0.50;;;;;;;18.66;60.07;97416.56;10284392;28;20051;-86
2022/06/08 04:44:06;;;;;;;0.90;0.40;;;;;;;18.97;59.49;97404.78;10257690;28;20102;-85
2022/06/08 04:49:30;;;;;;;3.45;0.52;;;;;;;19.24;59.06;97411.94;10270675;28;20042;-84
2022/06/08 04:54:51;;;;;;;3.33;0.60;;;;;;;19.51;58.32;97402.06;10270457;28;20441;-85
2022/06/08 05:00:14;;;;;;;2.40;0.50;;;;;;;19.62;57.81;97400.97;10269566;28;20046;-76
2022/06/08 05:05:37;;;;;;;1.75;0.40;;;;;;;19.64;57.33;97392.53;10296939;28;20047;-84
2022/06/08 05:11:04;;;;;;;4.03;0.50;;;;;;;19.68;56.73;97398.28;10283353;28;20077;-85
2022/06/08 05:16:28;;;;;;;1.77;0.75;;;;;;;19.62;56.62;97386.81;10273278;28;20043;-85
2022/06/08 05:21:54;;;;;;;4.80;0.50;;;;;;;19.51;56.13;97387.91;10310673;28;20465;-86
2022/06/08 05:27:19;;;;;;;1.55;0.50;;;;;;;19.58;56.38;97386.69;10328449;28;20049;-84
2022/06/08 05:32:39;;;;;;;1.25;0.50;;;;;;;19.89;55.64;97381.84;10292952;28;20065;-83
2022/06/08 05:38:00;;;;;;;2.80;0.57;;;;;;;20.21;55.42;97388.28;10292900;28;20054;-86
2022/06/08 05:43:21;;;;;;;2.70;0.60;;;;;;;20.63;54.84;97385.03;10291623;28;20040;-85
2022/06/08 05:48:46;;;;;;;3.63;0.50;;;;;;;21.11;54.08;97385.34;10295606;28;20077;-84
2022/06/08 05:54:07;;;;;;;0.82;0.40;;;;;;;21.79;52.14;97378.13;10321968;28;20078;-84
2022/06/08 05:59:29;;;;;;;6.28;0.70;;;;;;;22.37;51.86;97386.22;10310714;28;20043;-84
2022/06/08 06:04:50;;;;;;;4.85;0.80;;;;;;;23.46;50.42;97374.88;10307298;28;20053;-83
2022/06/08 06:10:11;;;;;;;2.10;0.60;;;;;;;25.00;48.06;97361.88;10307275;28;20042;-83
2022/06/08 06:15:48;;;;;;;2.75;0.43;;;;;;;29.08;42.54;97381.41;10311186;28;20085;-83
2022/06/08 06:21:19;;;;;;;1.48;0.60;;;;;;;33.90;35.20;97390.84;10320110;28;20492;-82
2022/06/08 06:26:47;;;;;;;3.05;0.50;;;;;;;37.57;31.07;97389.19;10321421;28;20050;-85
2022/06/08 06:32:34;;;;;;;2.55;0.40;;;;;;;40.27;23.74;97397.97;10321151;28;20042;-84
2022/06/08 06:37:55;;;;;;;2.15;0.30;;;;;;;41.56;23.83;97402.75;10319298;28;20058;-84
2022/06/08 06:43:16;;;;;;;2.30;0.50;;;;;;;43.26;21.28;97401.84;10306314;28;20038;-86
2022/06/08 06:48:36;;;;;;;2.65;0.40;;;;;;;43.00;19.94;97403.66;10333168;28;20046;-86
2022/06/08 06:53:59;;;;;;;2.47;0.73;;;;;;;44.24;18.13;97410.28;10293253;28;20049;-76
2022/06/08 06:59:21;;;;;;;1.30;0.38;;;;;;;46.90;15.97;97410.72;10306149;28;20038;-77
2022/06/08 07:04:43;;;;;;;2.58;0.40;;;;;;;48.71;13.23;97398.34;10305623;28;20138;-79
2022/06/08 07:10:08;;;;;;;2.10;0.20;;;;;;;50.44;11.96;97395.16;10305717;28;20042;-77
2022/06/08 07:15:30;;;;;;;3.22;0.30;;;;;;;50.65;9.93;97392.19;10290119;28;20399;-78
2022/06/08 07:20:52;;;;;;;0.98;0.30;;;;;;;50.05;10.63;97393.06;10318946;28;20515;-79
2022/06/08 07:26:13;;;;;;;1.98;0.20;;;;;;;48.74;10.44;97384.03;10312495;28;20104;-78
2022/06/08 07:31:35;;;;;;;3.00;0.30;;;;;;;49.13;10.33;97383.38;10299453;28;20496;-78
2022/06/08 07:37:00;;;;;;;1.95;0.30;;;;;;;50.79;10.17;97380.47;10312757;28;20496;-77
2022/06/08 07:42:24;;;;;;;2.53;0.22;;;;;;;52.20;8.79;97373.06;10312775;28;20487;-77
2022/06/08 07:53:29;;;;;;;3.55;0.38;;;;;;;54.87;7.62;97357.66;10328872;28;20042;-78
2022/06/08 07:58:51;;;;;;;1.38;0.30;;;;;;;55.64;5.61;97344.59;10311957;28;20412;-78
2022/06/08 08:04:12;;;;;;;1.40;0.40;;;;;;;55.61;4.85;97338.16;10325677;28;20415;-78
2022/06/08 08:10:21;;;;;;;3.63;0.57;;;;;;;56.48;5.62;97343.81;10319674;28;20125;-77
2022/06/08 08:15:46;;;;;;;2.88;0.65;;;;;;;56.52;5.30;97340.31;10311050;28;20081;-77
2022/06/08 08:21:07;;;;;;;1.35;0.70;;;;;;;58.09;4.30;97334.84;10338755;28;20054;-78
2022/06/08 08:27:00;;;;;;;1.70;1.10;;;;;;;57.81;3.89;97327.31;10338338;28;20058;-78
2022/06/08 08:32:23;;;;;;;1.52;1.17;;;;;;;57.95;4.02;97310.41;10307602;28;20058;-77
2022/06/08 08:37:45;;;;;;;2.20;1.55;;;;;;;58.40;3.42;97319.41;10307526;28;20088;-77
2022/06/08 08:43:38;;;;;;;2.25;1.70;;;;;;;57.54;3.44;97321.84;10324820;28;20485;-77
2022/06/08 08:49:20;;;;;;;2.47;2.28;;;;;;;56.89;3.45;97320.66;10334055;28;20074;-78
2022/06/08 08:54:57;;;;;;;0.70;0.40;;;;;;;48.09;6.63;97299.00;10337829;28;20104;-79
2022/06/08 09:00:25;;;;;;;2.67;0.60;;;;;;;49.80;7.32;97296.84;10323920;28;20066;-78
2022/06/08 09:05:51;;;;;;;1.67;0.40;;;;;;;54.81;4.77;97292.66;10323477;28;20062;-78
2022/06/08 09:11:19;;;;;;;2.80;0.73;;;;;;;55.42;4.48;97282.25;10336662;28;20101;-78
2022/06/08 09:16:45;;;;;;;1.95;1.20;;;;;;;56.19;3.19;97281.56;10336046;28;20050;-77
2022/06/08 09:22:13;;;;;;;2.42;1.95;;;;;;;56.88;3.35;97281.00;10307513;28;20065;-78
2022/06/08 09:27:36;;;;;;;1.02;0.40;;;;;;;45.18;7.71;97267.75;10336247;28;20042;-77
2022/06/08 09:33:13;;;;;;;1.90;0.57;;;;;;;42.62;10.89;97255.13;10319885;28;20137;-79
2022/06/08 09:38:36;;;;;;;1.15;0.30;;;;;;;43.81;10.25;97262.09;10306941;28;20059;-77
2022/06/08 09:44:07;;;;;;;1.90;0.30;;;;;;;49.38;7.69;97249.09;10247263;28;20031;-77
2022/06/08 09:55:55;;;;;;;1.60;0.30;;;;;;;49.65;5.67;97240.53;10279182;28;20066;-78
2022/06/08 10:01:37;;;;;;;2.95;0.30;;;;;;;43.41;8.57;97231.91;10285724;28;20393;-77
2022/06/08 10:07:14;;;;;;;3.50;0.20;;;;;;;44.36;8.43;97229.25;10291028;28;20548;-78
2022/06/08 10:12:45;;;;;;;2.10;0.20;;;;;;;39.79;10.53;97223.22;10277342;28;20058;-78
2022/06/08 10:18:22;;;;;;;1.15;0.30;;;;;;;41.84;11.77;97212.03;10273127;28;20043;-80
2022/06/08 10:24:06;;;;;;;2.28;0.20;;;;;;;40.21;11.31;97219.31;10274613;28;20050;-78
2022/06/08 10:29:30;;;;;;;1.52;0.20;;;;;;;39.63;12.77;97209.56;10267293;28;20046;-80
2022/06/08 10:35:09;;;;;;;2.07;0.30;;;;;;;44.19;9.49;97205.59;10306472;28;20405;-80
2022/06/08 10:40:45;;;;;;;1.23;0.20;;;;;;;41.16;10.58;97204.66;10267654;28;20286;-86
2022/06/08 10:46:27;;;;;;;1.15;0.15;;;;;;;37.92;11.76;97186.63;10292995;28;20125;-83
2022/06/08 10:52:13;;;;;;;1.52;0.22;;;;;;;36.91;14.21;97187.13;10280290;28;20113;-85
2022/06/08 10:57:38;;;;;;;3.55;0.20;;;;;;;35.80;13.79;97184.69;10292691;28;20058;-85
2022/06/08 11:03:03;;;;;;;5.20;0.30;;;;;;;34.81;15.26;97175.53;10291512;28;20097;-83
2022/06/08 11:08:24;;;;;;;0.98;0.20;;;;;;;34.49;15.45;97165.19;10305762;28;20055;-84
2022/06/08 11:13:51;;;;;;;0.93;0.20;;;;;;;34.00;15.72;97166.91;10288131;28;20046;-82
2022/06/08 11:19:14;;;;;;;1.13;0.13;;;;;;;33.65;15.83;97164.47;10275110;28;20055;-84
2022/06/08 11:24:40;;;;;;;2.15;0.20;;;;;;;33.37;16.25;97161.03;10290509;28;20049;-84
2022/06/08 11:30:23;;;;;;;2.40;0.20;;;;;;;32.10;18.88;97164.00;10278784;28;20102;-84
2022/06/08 11:35:59;;;;;;;5.32;0.30;;;;;;;32.19;19.88;97158.72;10296387;28;20061;-82
2022/06/08 11:41:20;;;;;;;0.60;0.20;;;;;;;32.55;19.84;97162.78;10331814;28;20046;-84
2022/06/08 11:47:00;;;;;;;0.93;0.22;;;;;;;33.46;19.79;97155.69;10331043;28;20396;-84
2022/06/08 11:52:29;;;;;;;2.20;0.28;;;;;;;33.14;19.74;97148.75;10304733;28;20058;-84
2022/06/08 11:58:05;;;;;;;3.58;0.55;;;;;;;33.12;21.22;97148.81;10318461;28;20093;-84
2022/06/08 12:03:46;;;;;;;1.15;0.30;;;;;;;32.67;20.95;97144.38;10331642;28;20552;-84
2022/06/08 12:09:20;;;;;;;1.45;0.30;;;;;;;32.77;21.09;97141.19;10304969;28;20050;-84
2022/06/08 12:14:41;;;;;;;1.67;0.30;;;;;;;33.09;20.88;97142.38;10325771;28;20469;-84
2022/06/08 12:20:13;;;;;;;5.75;2.95;;;;;;;32.84;21.52;97127.28;10311490;28;20034;-84
2022/06/08 12:25:34;;;;;;;4.88;2.70;;;;;;;32.10;22.70;97117.13;10311221;28;20100;-84
2022/06/08 12:30:57;;;;;;;4.05;2.28;;;;;;;31.88;23.61;97121.34;10324770;28;20057;-84
2022/06/08 12:36:28;;;;;;;4.93;2.10;;;;;;;32.01;23.80;97110.16;10325207;28;20054;-84
2022/06/08 12:41:54;;;;;;;2.47;1.42;;;;;;;31.70;24.01;97105.19;10324225;28;20400;-84
2022/06/08 12:47:17;;;;;;;2.22;1.05;;;;;;;31.84;24.28;97109.88;10310717;28;20046;-84
2022/06/08 12:52:40;;;;;;;2.17;0.50;;;;;;;32.39;23.29;97106.19;10324030;28;20042;-84
2022/06/08 12:58:02;;;;;;;2.75;1.50;;;;;;;32.28;23.48;97096.41;10323776;28;20046;-84
2022/06/08 13:03:27;;;;;;;7.70;1.08;;;;;;;31.43;23.45;97078.50;10310020;28;20046;-84
2022/06/08 13:08:49;;;;;;;3.15;0.80;;;;;;;30.74;23.90;97083.75;10309740;28;20543;-84
2022/06/08 13:14:20;;;;;;;1.08;0.40;;;;;;;29.83;24.62;97087.06;10323601;28;20049;-84
2022/06/08 13:19:41;;;;;;;3.30;0.70;;;;;;;30.24;25.31;97077.63;10322733;28;20049;-84
2022/06/08 13:25:05;;;;;;;3.50;0.90;;;;;;;30.15;24.95;97082.13;10309774;28;20050;-83
2022/06/08 13:30:28;;;;;;;4.00;0.90;;;;;;;30.40;25.11;97074.41;10322443;28;20072;-84
2022/06/08 13:35:49;;;;;;;1.00;0.20;;;;;;;30.67;23.80;97063.03;10321935;28;20050;-84
2022/06/08 13:41:10;;;;;;;4.68;0.50;;;;;;;31.08;23.61;97061.34;10321942;28;20499;-84
2022/06/08 13:46:31;;;;;;;2.30;0.50;;;;;;;30.69;23.56;97047.84;10321885;28;20058;-84
2022/06/08 13:51:54;;;;;;;2.67;0.45;;;;;;;30.14;23.59;97051.94;10308127;28;20073;-83
2022/06/08 13:57:15;;;;;;;2.40;0.30;;;;;;;29.92;23.30;97039.41;10321188;28;20405;-84
2022/06/08 14:02:44;;;;;;;2.40;0.20;;;;;;;29.76;22.60;97033.97;10321138;28;20054;-83
2022/06/08 14:13:47;;;;;;;1.83;0.20;;;;;;;30.30;22.07;97027.84;10295509;28;20401;-83
2022/06/08 14:19:15;;;;;;;0.93;0.20;;;;;;;30.61;21.41;97025.72;10320687;28;20400;-83
2022/06/08 14:24:40;;;;;;;1.13;0.20;;;;;;;30.77;21.89;97024.63;10320264;28;20300;-84
2022/06/08 14:30:06;;;;;;;1.33;0.20;;;;;;;30.87;21.35;97007.09;10306750;28;20413;-84
2022/06/08 14:35:31;;;;;;;2.42;0.28;;;;;;;30.30;22.01;97005.53;10305811;28;20050;-84
2022/06/08 14:41:12;;;;;;;2.60;0.28;;;;;;;29.84;21.95;96993.56;10319794;28;20042;-84
2022/06/08 14:46:35;;;;;;;2.33;0.23;;;;;;;29.83;22.30;96992.16;10319770;28;20181;-84
2022/06/08 14:51:57;;;;;;;1.38;0.20;;;;;;;29.88;22.29;96984.84;10306198;28;20042;-83
2022/06/08 14:57:23;;;;;;;1.85;0.13;;;;;;;30.15;22.30;96987.88;10319046;28;20489;-83
2022/06/08 15:02:44;;;;;;;1.15;0.20;;;;;;;30.27;22.60;96983.31;10319218;28;20409;-84
2022/06/08 15:08:06;;;;;;;1.38;0.20;;;;;;;30.18;22.25;96979.91;10319361;28;20104;-84
2022/06/08 15:13:27;;;;;;;5.43;0.35;;;;;;;29.86;22.98;96978.41;10305526;28;20373;-83
2022/06/08 15:18:48;;;;;;;1.48;0.30;;;;;;;29.55;23.21;96967.56;10318964;28;20070;-83
2022/06/08 15:24:11;;;;;;;0.30;0.13;;;;;;;29.23;23.54;96968.84;10305493;28;20046;-84
2022/06/08 15:29:33;;;;;;;2.47;0.30;;;;;;;28.54;24.61;96967.13;10319364;28;20476;-83
2022/06/08 15:34:55;;;;;;;1.15;0.40;;;;;;;27.96;25.50;96960.78;10318893;28;20539;-84
2022/06/08 15:40:26;;;;;;;2.47;0.20;;;;;;;28.09;25.93;96962.06;10318835;28;20050;-84
2022/06/08 15:45:47;;;;;;;0.95;0.30;;;;;;;28.33;25.84;96949.53;10323029;28;20042;-84
2022/06/08 15:51:16;;;;;;;5.17;0.37;;;;;;;28.31;26.02;96940.25;10312853;28;20050;-83
2022/06/08 15:56:38;;;;;;;0.60;0.28;;;;;;;28.20;26.51;96942.53;10325927;28;20043;-84
2022/06/08 16:02:01;;;;;;;2.05;0.30;;;;;;;27.80;26.98;96956.00;10325711;28;20065;-84
2022/06/08 16:07:22;;;;;;;1.90;0.30;;;;;;;27.39;27.57;96950.72;10325844;28;20046;-84
2022/06/08 16:12:43;;;;;;;1.17;0.20;;;;;;;27.21;27.86;96947.34;10312027;28;20039;-83
2022/06/08 16:18:04;;;;;;;1.38;0.20;;;;;;;27.16;28.04;96949.53;10311598;28;20125;-84
2022/06/08 16:23:25;;;;;;;1.27;0.30;;;;;;;27.20;28.10;96940.19;10338600;28;20424;-84
2022/06/08 16:28:46;;;;;;;2.17;0.28;;;;;;;27.05;28.27;96943.22;10338378;28;20053;-84
2022/06/08 16:34:07;;;;;;;2.23;0.30;;;;;;;27.15;28.15;96942.41;10325092;28;20069;-83
2022/06/08 16:39:29;;;;;;;1.55;0.32;;;;;;;27.00;28.35;96935.34;10297601;28;20055;-84
2022/06/08 16:44:50;;;;;;;1.05;0.30;;;;;;;26.85;28.24;96942.69;10297687;28;20066;-84
2022/06/08 16:50:12;;;;;;;3.45;0.30;;;;;;;26.64;28.59;96934.28;10297510;28;20046;-84
2022/06/08 16:55:33;;;;;;;;;;;;;;;26.48;28.79;96937.97;10283629;28;20039;-83
2022/06/08 17:00:54;;;;;;;2.92;0.77;;;;;;;26.31;28.98;96936.66;10283567;28;19957;-83
2022/06/08 17:06:17;;;;;;;0.80;0.40;;;;;;;26.20;29.50;96932.44;10283218;28;20081;-84
2022/06/08 17:11:38;;;;;;;1.08;0.25;;;;;;;25.92;29.29;96925.47;10296811;28;20047;-81
2022/06/08 17:16:59;;;;;;;3.50;0.40;;;;;;;25.69;30.04;96936.28;10283003;28;20046;-84
2022/06/08 17:22:20;;;;;;;1.65;0.30;;;;;;;25.47;30.69;96932.81;10283033;28;20118;-84
2022/06/08 17:27:42;;;;;;;2.08;0.40;;;;;;;25.42;30.97;96925.69;10282712;28;20473;-84
2022/06/08 17:33:05;;;;;;;1.13;0.30;;;;;;;25.40;30.54;96930.00;10295920;28;20035;-84
2022/06/08 17:38:25;;;;;;;2.40;0.40;;;;;;;25.29;30.98;96933.63;10307910;28;20050;-84
2022/06/08 17:43:46;;;;;;;1.67;0.40;;;;;;;25.28;31.30;96935.72;10308492;28;20061;-81
2022/06/08 17:49:09;;;;;;;3.53;0.85;;;;;;;25.25;31.69;96931.47;10322040;28;20074;-82
2022/06/08 17:54:31;;;;;;;1.48;0.40;;;;;;;25.11;31.48;96934.38;10307919;28;20038;-81
2022/06/08 17:59:53;;;;;;;5.10;0.50;;;;;;;25.02;32.08;96921.53;10321495;28;20042;-82
2022/06/08 18:05:14;;;;;;;1.45;0.40;;;;;;;24.93;32.23;96928.66;10321102;28;20046;-81
2022/06/08 18:10:37;;;;;;;1.48;0.30;;;;;;;24.78;32.62;96928.69;10320079;28;20077;-81
2022/06/08 18:15:58;;;;;;;0.70;0.28;;;;;;;24.76;32.81;96933.69;10321111;28;20070;-84
2022/06/08 18:21:19;;;;;;;3.80;0.35;;;;;;;24.77;32.92;96932.25;10334266;28;20042;-84
2022/06/08 18:26:42;;;;;;;2.67;0.40;;;;;;;24.72;33.09;96945.13;10307047;28;20396;-81
2022/06/08 18:32:03;;;;;;;;;;;;;;;24.69;33.74;96949.38;10307440;28;20046;-81
2022/06/08 18:37:24;;;;;;;1.70;0.40;;;;;;;24.62;33.89;96945.13;10320050;28;19926;-82
2022/06/08 18:42:46;;;;;;;5.43;0.50;;;;;;;24.54;33.80;96951.53;10319785;28;20073;-82
2022/06/08 18:48:11;;;;;;;4.70;0.50;;;;;;;24.45;33.85;96947.25;10306373;28;20050;-82
2022/06/08 18:53:32;;;;;;;2.10;0.80;;;;;;;24.20;34.07;96941.50;10318845;28;20415;-75
2022/06/08 18:58:53;;;;;;;2.85;0.70;;;;;;;23.94;34.42;96945.03;10305298;28;20074;-83
2022/06/08 19:04:14;;;;;;;3.42;0.85;;;;;;;23.78;34.64;96947.13;10314093;28;20129;-84
2022/06/08 19:09:34;;;;;;;3.17;0.68;;;;;;;23.69;35.03;96952.78;10303790;28;20057;-84
2022/06/08 19:14:55;;;;;;;3.03;0.93;;;;;;;23.66;34.85;96953.50;10305216;28;20051;-79
2022/06/08 19:25:56;;;;;;;3.08;0.85;;;;;;;23.67;35.47;96967.03;10326929;28;20038;-79
2022/06/08 19:31:18;;;;;;;2.65;0.90;;;;;;;23.62;35.60;96974.13;10313391;28;20038;-78
2022/06/08 19:36:44;;;;;;;4.03;1.10;;;;;;;23.60;35.62;96970.56;10340143;28;20046;-78
2022/06/08 19:42:05;;;;;;;2.42;0.98;;;;;;;23.59;35.74;96963.44;10340121;28;20038;-78
2022/06/08 19:47:26;;;;;;;4.63;1.00;;;;;;;23.47;36.07;96971.91;10312808;28;20444;-78
2022/06/08 19:52:47;;;;;;;4.72;1.10;;;;;;;23.40;36.19;96959.75;10339811;28;20050;-77
2022/06/08 19:58:09;;;;;;;8.73;3.50;;;;;;;23.42;36.49;96962.63;10312780;28;20054;-77
2022/06/08 20:03:30;;;;;;;3.60;1.77;;;;;;;23.35;36.72;96964.00;10324437;28;20515;-76
2022/06/08 20:08:51;;;;;;;2.63;2.05;;;;;;;23.35;37.09;96961.16;10314832;28;20055;-84
2022/06/08 20:14:12;;;;;;;6.10;2.40;;;;;;;23.32;37.23;96962.56;10325024;28;20065;-84
2022/06/08 20:19:33;;;;;;;7.15;2.53;;;;;;;23.28;37.52;96963.28;10308921;28;20046;-84
2022/06/08 20:24:54;;;;;;;2.97;1.52;;;;;;;23.26;37.55;96971.06;10309645;28;20056;-85
2022/06/08 20:30:15;;;;;;;3.40;1.65;;;;;;;23.19;37.67;96966.78;10323365;28;20050;-85
2022/06/08 20:35:36;;;;;;;3.45;1.63;;;;;;;23.12;38.33;96963.88;10338249;28;20051;-84
2022/06/08 20:40:57;;;;;;;5.15;2.10;;;;;;;23.03;38.02;96962.41;10310629;28;20108;-84
2022/06/08 20:46:18;;;;;;;3.25;1.10;;;;;;;22.95;38.57;96967.34;10311038;28;20047;-84
2022/06/08 20:51:40;;;;;;;2.38;1.00;;;;;;;22.90;38.47;96960.91;10297488;28;20042;-84
2022/06/08 20:57:02;;;;;;;2.78;1.00;;;;;;;22.86;38.41;96966.56;10310535;28;20125;-84
2022/06/08 21:02:24;;;;;;;1.70;1.10;;;;;;;22.77;38.97;96970.72;10310739;28;20104;-84
2022/06/08 21:07:45;;;;;;;1.98;0.90;;;;;;;22.60;38.94;96960.66;10324056;28;20048;-84
2022/06/08 21:13:06;;;;;;;2.97;1.08;;;;;;;22.48;38.98;96970.50;10323701;28;20042;-83
2022/06/08 21:18:28;;;;;;;5.68;0.95;;;;;;;22.44;38.99;96959.13;10323601;28;20049;-84
2022/06/08 21:23:48;;;;;;;2.60;1.10;;;;;;;22.40;39.34;96961.94;10296069;28;20049;-84
2022/06/08 21:29:09;;;;;;;2.47;0.90;;;;;;;22.35;39.22;96960.44;10322656;28;20052;-83
2022/06/08 21:34:30;;;;;;;3.97;0.90;;;;;;;22.34;39.70;96961.16;10295911;28;20125;-84
2022/06/08 21:39:51;;;;;;;2.85;1.10;;;;;;;22.29;39.81;96957.53;10295247;28;20133;-82
2022/06/08 21:45:17;;;;;;;4.03;1.23;;;;;;;22.23;40.01;96960.34;10295192;28;20053;-83
2022/06/08 21:50:42;;;;;;;3.08;0.93;;;;;;;22.09;40.08;96943.16;10322334;28;20050;-83
2022/06/08 21:56:04;;;;;;;2.60;0.93;;;;;;;21.95;40.42;96941.59;10309187;28;20066;-83
2022/06/08 22:01:24;;;;;;;2.55;1.20;;;;;;;21.86;40.86;96940.06;10307823;28;20046;-83
2022/06/08 22:06:45;;;;;;;4.40;1.50;;;;;;;21.78;41.06;96939.97;10321367;28;20125;-83
2022/06/08 22:12:07;;;;;;;2.72;1.35;;;;;;;21.80;40.90;96937.16;10294410;28;20049;-83
2022/06/08 22:17:28;;;;;;;1.73;1.05;;;;;;;21.74;41.28;96928.59;10319959;28;20053;-82
2022/06/08 22:22:48;;;;;;;3.80;1.10;;;;;;;21.59;41.43;96927.69;10307338;28;20100;-84
2022/06/08 22:28:09;;;;;;;3.33;1.08;;;;;;;21.41;41.67;96922.50;10293804;28;20042;-84
2022/06/08 22:33:29;;;;;;;3.33;1.05;;;;;;;21.34;41.76;96923.16;10320402;28;20464;-83
2022/06/08 22:38:51;;;;;;;1.92;0.98;;;;;;;21.23;41.94;96918.72;10293261;28;20104;-84
2022/06/08 22:44:12;;;;;;;4.45;0.90;;;;;;;21.24;41.99;96926.56;10319886;28;20430;-84
2022/06/08 22:49:34;;;;;;;5.33;1.20;;;;;;;21.31;42.17;96913.16;10320032;28;20103;-83
2022/06/08 22:54:54;;;;;;;1.80;0.75;;;;;;;21.27;42.61;96904.63;10319143;28;20046;-84
2022/06/08 23:00:16;;;;;;;2.67;1.08;;;;;;;21.24;42.60;96903.13;10292702;28;20043;-83
2022/06/08 23:05:37;;;;;;;3.17;1.10;;;;;;;21.11;43.12;96902.25;10319247;28;20054;-84
2022/06/08 23:22:16;;;;;;;2.53;1.60;;;;;;;20.66;44.17;96895.28;10324476;28;20047;-83
2022/06/08 23:27:37;;;;;;;4.15;1.90;;;;;;;20.61;44.34;96897.31;10292507;28;20192;-83
2022/06/08 23:33:00;;;;;;;5.43;2.17;;;;;;;20.59;44.29;96917.13;10292387;28;20054;-84
2022/06/08 23:38:21;;;;;;;;;;;;;;;20.59;46.10;96905.78;10293374;28;20058;-83
2022/06/08 23:43:42;;;;;;;3.72;2.00;;;;;;;20.50;45.46;96907.78;10345817;28;19922;-85
2022/06/08 23:49:03;;;;;;;4.60;1.45;;;;;;;20.54;45.84;96898.63;10291889;28;20050;-83
2022/06/08 23:54:24;;;;;;;3.45;1.20;;;;;;;20.57;45.96;96905.78;10305123;28;20046;-83
2022/06/08 23:59:44;;;;;;;6.57;1.55;;;;;;;20.58;46.31;96905.09;10291676;28;20126;-83
